createdAt,value
2023-03-12T00:02:25.478Z,4.37
2023-03-12T00:04:58.350Z,4.37
2023-03-12T00:07:27.917Z,4.87
2023-03-12T00:09:57.539Z,4.70
2023-03-12T00:12:27.204Z,4.20
2023-03-12T00:14:56.692Z,4.60
2023-03-12T00:17:26.278Z,3.77
2023-03-12T00:19:58.475Z,3.70
2023-03-12T00:22:28.054Z,3.90
2023-03-12T00:24:58.553Z,4.17
2023-03-12T00:27:28.945Z,3.57
2023-03-12T00:29:58.450Z,3.23
2023-03-12T00:32:28.043Z,3.47
2023-03-12T00:35:00.159Z,3.80
2023-03-12T00:37:30.024Z,3.17
2023-03-12T00:39:59.565Z,4.13
2023-03-12T00:42:29.098Z,3.73
2023-03-12T00:44:58.574Z,3.63
2023-03-12T00:47:29.024Z,3.87
2023-03-12T00:50:01.205Z,3.80
2023-03-12T00:52:31.007Z,3.90
2023-03-12T00:55:00.831Z,3.60
2023-03-12T00:57:30.537Z,3.50
2023-03-12T01:00:00.144Z,3.67
2023-03-12T01:02:29.765Z,5.30
2023-03-12T01:05:01.920Z,5.77
2023-03-12T01:07:31.535Z,5.17
2023-03-12T01:10:02.009Z,5.03
2023-03-12T01:12:31.691Z,4.47
2023-03-12T01:15:01.250Z,4.60
2023-03-12T01:17:30.882Z,4.17
2023-03-12T01:20:04.109Z,4.00
2023-03-12T01:22:33.697Z,3.50
2023-03-12T01:25:03.189Z,4.10
2023-03-12T01:27:32.781Z,4.23
2023-03-12T01:30:02.346Z,3.63
2023-03-12T01:32:31.921Z,3.53
2023-03-12T01:35:04.108Z,3.37
2023-03-12T01:37:34.742Z,3.83
2023-03-12T01:40:04.534Z,4.47
2023-03-12T01:42:34.097Z,4.30
2023-03-12T01:45:04.453Z,3.90
2023-03-12T01:47:35.960Z,4.67
2023-03-12T01:50:12.945Z,4.43
2023-03-12T01:52:42.634Z,4.10
2023-03-12T01:55:14.586Z,4.53
2023-03-12T01:57:49.050Z,4.23
2023-03-12T02:00:20.181Z,4.13
2023-03-12T02:02:52.336Z,4.17
2023-03-12T02:05:30.800Z,4.03
2023-03-12T02:08:01.236Z,4.57
2023-03-12T02:10:30.837Z,4.03
2023-03-12T02:13:00.406Z,3.17
2023-03-12T02:15:30.044Z,3.43
2023-03-12T02:17:59.756Z,3.17
2023-03-12T02:20:37.652Z,3.07
2023-03-12T02:23:09.235Z,3.30
2023-03-12T02:25:43.001Z,2.97
2023-03-12T02:28:15.078Z,3.70
2023-03-12T02:30:47.927Z,3.20
2023-03-12T02:33:17.971Z,3.47
2023-03-12T02:35:48.371Z,3.43
2023-03-12T02:38:41.919Z,3.50
2023-03-12T02:41:17.344Z,3.50
2023-03-12T02:43:48.242Z,3.00
2023-03-12T02:46:18.421Z,3.60
2023-03-12T02:48:47.956Z,3.30
2023-03-12T02:51:17.510Z,3.50
2023-03-12T02:53:47.726Z,4.43
2023-03-12T02:56:19.887Z,4.20
2023-03-12T02:58:49.470Z,3.43
2023-03-12T03:01:19.537Z,3.60
2023-03-12T03:03:49.545Z,3.97
2023-03-12T03:06:19.177Z,3.10
2023-03-12T03:08:48.694Z,3.27
2023-03-12T03:11:24.359Z,3.27
2023-03-12T03:13:56.682Z,3.60
2023-03-12T03:16:26.861Z,3.17
2023-03-12T03:18:57.066Z,3.80
2023-03-12T03:21:26.599Z,2.93
2023-03-12T03:23:56.124Z,2.73
2023-03-12T03:26:28.434Z,3.43
2023-03-12T03:28:58.108Z,3.33
2023-03-12T03:31:27.880Z,3.30
2023-03-12T03:33:57.752Z,3.00
2023-03-12T03:36:27.249Z,3.67
2023-03-12T03:39:05.306Z,3.40
2023-03-12T03:41:37.983Z,3.67
2023-03-12T03:44:08.086Z,4.03
2023-03-12T03:46:39.586Z,3.87
2023-03-12T03:49:12.261Z,3.97
2023-03-12T03:51:44.805Z,4.43
2023-03-12T03:54:18.112Z,4.40
2023-03-12T03:56:51.241Z,4.30
2023-03-12T03:59:20.865Z,3.83
2023-03-12T04:01:50.901Z,3.00
2023-03-12T04:04:20.531Z,3.20
2023-03-12T04:06:50.053Z,3.10
2023-03-12T04:09:19.601Z,3.57
2023-03-12T04:11:51.863Z,3.53
2023-03-12T04:14:22.177Z,3.43
2023-03-12T04:16:51.720Z,3.20
2023-03-12T04:19:21.362Z,3.63
2023-03-12T04:21:51.159Z,2.90
2023-03-12T04:24:20.890Z,3.20
2023-03-12T04:26:54.488Z,2.90
2023-03-12T04:29:24.118Z,3.23
2023-03-12T04:31:54.831Z,3.50
2023-03-12T04:34:24.934Z,3.23
2023-03-12T04:36:56.523Z,3.30
2023-03-12T04:39:26.504Z,3.37
2023-03-12T04:41:58.834Z,3.17
2023-03-12T04:44:29.534Z,2.70
2023-03-12T04:46:59.174Z,3.50
2023-03-12T04:49:29.526Z,3.17
2023-03-12T04:51:59.887Z,3.10
2023-03-12T04:54:32.341Z,3.93
2023-03-12T04:57:05.529Z,2.90
2023-03-12T04:59:35.526Z,3.00
2023-03-12T05:02:05.416Z,3.60
2023-03-12T05:04:34.895Z,3.57
2023-03-12T05:07:04.446Z,3.50
2023-03-12T05:09:34.003Z,2.90
2023-03-12T05:12:06.537Z,3.33
2023-03-12T05:14:36.459Z,3.10
2023-03-12T05:17:07.006Z,2.97
2023-03-12T05:19:37.377Z,3.03
2023-03-12T05:22:06.903Z,3.30
2023-03-12T05:24:36.632Z,3.43
2023-03-12T05:27:08.859Z,3.33
2023-03-12T05:29:38.434Z,2.90
2023-03-12T05:32:08.421Z,2.87
2023-03-12T05:34:38.248Z,2.83
2023-03-12T05:37:07.927Z,2.60
2023-03-12T05:39:38.172Z,3.00
2023-03-12T05:42:10.988Z,3.37
2023-03-12T05:44:40.557Z,3.13
2023-03-12T05:47:10.685Z,2.90
2023-03-12T05:49:42.646Z,3.17
2023-03-12T05:52:12.367Z,2.97
2023-03-12T05:54:42.093Z,2.97
2023-03-12T05:57:15.475Z,3.10
2023-03-12T05:59:45.075Z,3.27
2023-03-12T06:02:14.639Z,3.50
2023-03-12T06:04:44.223Z,3.83
2023-03-12T06:07:14.427Z,3.47
2023-03-12T06:09:44.004Z,3.57
2023-03-12T06:12:17.737Z,3.30
2023-03-12T06:14:47.754Z,2.80
2023-03-12T06:17:17.288Z,3.33
2023-03-12T06:19:47.795Z,3.13
2023-03-12T06:22:17.352Z,3.03
2023-03-12T06:24:47.527Z,3.07
2023-03-12T06:27:21.261Z,2.73
2023-03-12T06:29:51.608Z,3.47
2023-03-12T06:32:21.479Z,3.03
2023-03-12T06:34:50.922Z,3.10
2023-03-12T06:37:20.395Z,3.60
2023-03-12T06:39:49.874Z,3.33
2023-03-12T06:42:22.763Z,3.40
2023-03-12T06:44:52.677Z,3.17
2023-03-12T06:47:22.171Z,3.20
2023-03-12T06:49:51.678Z,3.53
2023-03-12T06:52:21.188Z,3.40
2023-03-12T06:54:50.690Z,3.90
2023-03-12T06:57:22.862Z,3.60
2023-03-12T06:59:52.484Z,3.87
2023-03-12T07:02:22.064Z,3.53
2023-03-12T07:04:51.627Z,3.83
2023-03-12T07:07:21.181Z,3.90
2023-03-12T07:09:50.690Z,3.83
2023-03-12T07:12:22.800Z,3.23
2023-03-12T07:14:52.316Z,3.60
2023-03-12T07:17:23.296Z,3.40
2023-03-12T07:19:53.021Z,3.00
2023-03-12T07:22:22.509Z,3.60
2023-03-12T07:24:52.102Z,3.07
2023-03-12T07:27:24.459Z,3.13
2023-03-12T07:29:54.028Z,2.87
2023-03-12T07:32:23.552Z,2.75
2023-03-12T07:34:53.088Z,3.20
2023-03-12T07:37:22.687Z,3.03
2023-03-12T07:39:54.784Z,3.60
2023-03-12T07:42:27.311Z,3.30
2023-03-12T07:44:59.191Z,2.70
2023-03-12T07:47:28.896Z,3.10
2023-03-12T07:49:58.534Z,3.63
2023-03-12T07:52:28.449Z,2.77
2023-03-12T07:54:58.832Z,2.77
2023-03-12T07:57:31.096Z,2.60
2023-03-12T08:00:00.682Z,2.90
2023-03-12T08:02:30.334Z,2.83
2023-03-12T08:04:59.957Z,2.73
2023-03-12T08:07:32.386Z,2.93
2023-03-12T08:10:02.219Z,2.90
2023-03-12T08:12:34.346Z,3.23
2023-03-12T08:15:03.970Z,2.88
2023-03-12T08:17:33.542Z,2.90
2023-03-12T08:20:04.075Z,2.40
2023-03-12T08:22:33.613Z,3.03
2023-03-12T08:25:03.077Z,2.73
2023-03-12T08:27:35.202Z,3.13
2023-03-12T08:30:04.749Z,2.78
2023-03-12T08:32:34.632Z,3.05
2023-03-12T08:35:05.358Z,2.73
2023-03-12T08:37:34.882Z,3.35
2023-03-12T08:40:05.689Z,2.47
2023-03-12T08:42:37.821Z,3.03
2023-03-12T08:45:07.699Z,2.95
2023-03-12T08:47:37.548Z,3.10
2023-03-12T08:50:07.241Z,2.92
2023-03-12T08:52:36.930Z,3.05
2023-03-12T08:55:06.557Z,2.83
2023-03-12T08:57:39.024Z,3.00
2023-03-12T09:00:13.131Z,2.67
2023-03-12T09:02:42.811Z,2.40
2023-03-12T09:05:12.366Z,1.95
2023-03-12T09:07:42.091Z,2.15
2023-03-12T09:10:11.933Z,3.00
2023-03-12T09:12:44.880Z,2.80
2023-03-12T09:15:14.632Z,4.18
2023-03-12T09:17:44.278Z,3.13
2023-03-12T09:20:14.626Z,5.25
2023-03-12T09:22:44.655Z,2.70
2023-03-12T09:25:14.538Z,2.20
2023-03-12T09:27:47.638Z,2.67
2023-03-12T09:30:18.894Z,3.60
2023-03-12T09:32:49.026Z,4.50
2023-03-12T09:35:18.957Z,2.80
2023-03-12T09:37:51.414Z,2.67
2023-03-12T09:40:22.622Z,2.65
2023-03-12T09:42:56.076Z,3.35
2023-03-12T09:45:27.527Z,2.50
2023-03-12T09:47:58.088Z,3.05
2023-03-12T09:50:29.870Z,2.58
2023-03-12T09:53:04.509Z,2.25
2023-03-12T09:55:38.111Z,2.50
2023-03-12T09:58:12.955Z,2.35
2023-03-12T10:00:42.587Z,2.47
2023-03-12T10:03:30.968Z,2.40
2023-03-12T10:06:08.859Z,2.13
2023-03-12T10:08:42.101Z,2.65
2023-03-12T10:11:18.762Z,2.28
2023-03-12T10:14:06.145Z,2.38
2023-03-12T10:16:46.535Z,2.00
2023-03-12T10:19:20.647Z,1.88
2023-03-12T10:21:52.854Z,2.20
2023-03-12T10:24:37.385Z,2.13
2023-03-12T10:27:13.963Z,2.17
2023-03-12T10:29:45.099Z,2.20
2023-03-12T10:32:20.393Z,2.13
2023-03-12T10:34:51.951Z,2.53
2023-03-12T10:37:23.491Z,2.72
2023-03-12T10:39:53.434Z,2.25
2023-03-12T10:42:23.415Z,2.13
2023-03-12T10:44:54.932Z,2.30
2023-03-12T10:47:37.513Z,2.08
2023-03-12T10:50:15.237Z,2.53
2023-03-12T10:52:44.996Z,3.08
2023-03-12T10:55:15.841Z,2.80
2023-03-12T10:57:45.423Z,2.50
2023-03-12T11:00:20.977Z,2.22
2023-03-12T11:02:59.191Z,2.20
2023-03-12T11:05:30.100Z,2.67
2023-03-12T11:08:00.553Z,3.15
2023-03-12T11:10:40.480Z,2.35
2023-03-12T11:13:25.687Z,2.75
2023-03-12T11:15:55.682Z,3.10
2023-03-12T11:18:35.078Z,2.97
2023-03-12T11:21:17.896Z,2.75
2023-03-12T11:23:48.473Z,2.35
2023-03-12T11:26:20.690Z,2.92
2023-03-12T11:28:51.010Z,2.95
2023-03-12T11:31:25.752Z,3.13
2023-03-12T11:34:00.980Z,3.65
2023-03-12T11:36:46.304Z,2.58
2023-03-12T11:39:21.495Z,2.55
2023-03-12T11:41:56.956Z,2.40
2023-03-12T11:44:29.436Z,2.70
2023-03-12T11:47:17.418Z,2.85
2023-03-12T11:50:03.062Z,2.85
2023-03-12T11:52:37.386Z,2.60
2023-03-12T11:55:25.425Z,2.72
2023-03-12T11:57:59.896Z,2.50
2023-03-12T12:00:34.604Z,2.50
2023-03-12T12:03:23.522Z,3.25
2023-03-12T12:06:02.169Z,3.30
2023-03-12T12:08:36.640Z,2.60
2023-03-12T12:11:08.705Z,3.00
2023-03-12T12:13:41.525Z,3.30
2023-03-12T12:16:20.361Z,2.63
2023-03-12T12:18:56.320Z,3.50
2023-03-12T12:21:44.779Z,2.78
2023-03-12T12:24:25.635Z,3.25
2023-03-12T12:27:00.232Z,3.20
2023-03-12T12:29:36.799Z,3.47
2023-03-12T12:32:08.444Z,3.47
2023-03-12T12:34:49.027Z,3.50
2023-03-12T12:37:36.191Z,3.22
2023-03-12T12:40:16.947Z,3.22
2023-03-12T12:42:52.510Z,3.22
2023-03-12T12:45:23.119Z,2.85
2023-03-12T12:47:54.212Z,3.42
2023-03-12T12:50:25.276Z,3.40
2023-03-12T12:52:56.794Z,3.45
2023-03-12T12:55:32.320Z,2.95
2023-03-12T12:58:04.411Z,3.78
2023-03-12T13:00:51.908Z,3.50
2023-03-12T13:03:23.714Z,3.85
2023-03-12T13:05:57.706Z,3.08
2023-03-12T13:08:51.318Z,3.63
2023-03-12T13:11:31.670Z,3.38
2023-03-12T13:14:16.293Z,3.70
2023-03-12T13:16:49.104Z,2.72
2023-03-12T13:19:27.300Z,3.17
2023-03-12T13:22:02.972Z,2.63
2023-03-12T13:24:33.662Z,3.55
2023-03-12T13:27:10.505Z,3.17
2023-03-12T13:29:41.683Z,3.17
2023-03-12T13:32:26.109Z,3.25
2023-03-12T13:34:59.367Z,3.47
2023-03-12T13:37:33.593Z,3.15
2023-03-12T13:40:10.647Z,3.35
2023-03-12T13:42:46.110Z,3.80
2023-03-12T13:45:33.415Z,3.42
2023-03-12T13:48:06.406Z,3.33
2023-03-12T13:50:36.625Z,3.85
2023-03-12T13:53:07.421Z,4.13
2023-03-12T13:55:37.864Z,3.78
2023-03-12T13:58:12.962Z,3.75
2023-03-12T14:00:44.338Z,3.65
2023-03-12T14:03:16.604Z,5.18
2023-03-12T14:05:48.624Z,4.82
2023-03-12T14:08:24.574Z,4.68
2023-03-12T14:11:04.359Z,4.55
2023-03-12T14:13:55.382Z,4.75
2023-03-12T14:16:28.206Z,4.93
2023-03-12T14:18:58.030Z,4.45
2023-03-12T14:21:31.565Z,4.75
2023-03-12T14:24:01.287Z,4.82
2023-03-12T14:26:31.919Z,5.32
2023-03-12T14:29:07.062Z,5.60
2023-03-12T14:31:38.245Z,5.22
2023-03-12T14:34:11.194Z,5.22
2023-03-12T14:36:42.434Z,5.63
2023-03-12T14:39:15.609Z,4.93
2023-03-12T14:41:46.122Z,5.45
2023-03-12T14:44:25.012Z,5.78
2023-03-12T14:47:01.664Z,5.57
2023-03-12T14:49:31.666Z,5.32
2023-03-12T14:52:01.290Z,4.93
2023-03-12T14:54:31.245Z,4.85
2023-03-12T14:57:00.743Z,5.53
2023-03-12T14:59:35.110Z,5.70
2023-03-12T15:02:07.033Z,5.97
2023-03-12T15:04:37.563Z,5.30
2023-03-12T15:07:08.035Z,5.90
2023-03-12T15:09:38.682Z,5.63
2023-03-12T15:12:09.709Z,5.47
2023-03-12T15:14:44.183Z,6.13
2023-03-12T15:17:17.538Z,4.97
2023-03-12T15:19:47.768Z,6.35
2023-03-12T15:22:18.498Z,6.10
2023-03-12T15:24:48.317Z,5.88
2023-03-12T15:27:25.938Z,5.57
2023-03-12T15:29:59.336Z,6.22
2023-03-12T15:32:31.970Z,6.10
2023-03-12T15:35:01.957Z,5.18
2023-03-12T15:37:34.954Z,5.53
2023-03-12T15:40:06.646Z,5.90
2023-03-12T15:42:40.696Z,5.57
2023-03-12T15:45:19.511Z,5.43
2023-03-12T15:47:49.267Z,5.30
2023-03-12T15:50:22.218Z,5.35
2023-03-12T15:53:01.458Z,5.13
2023-03-12T15:55:31.584Z,4.78
2023-03-12T15:58:01.592Z,5.38
2023-03-12T16:00:34.909Z,5.25
2023-03-12T16:03:06.235Z,5.53
2023-03-12T16:05:36.884Z,5.25
2023-03-12T16:08:13.672Z,5.43
2023-03-12T16:10:43.469Z,4.72
2023-03-12T16:13:14.694Z,4.70
2023-03-12T16:15:48.038Z,3.92
2023-03-12T16:18:18.633Z,4.93
2023-03-12T16:20:48.476Z,5.10
2023-03-12T16:23:18.124Z,4.13
2023-03-12T16:25:48.132Z,5.32
2023-03-12T16:28:19.734Z,4.45
2023-03-12T16:30:51.996Z,5.18
2023-03-12T16:33:22.338Z,4.88
2023-03-12T16:35:51.935Z,4.82
2023-03-12T16:38:21.469Z,4.18
2023-03-12T16:40:51.836Z,4.65
2023-03-12T16:43:22.231Z,4.00
2023-03-12T16:45:56.862Z,4.85
2023-03-12T16:48:26.941Z,4.63
2023-03-12T16:50:57.817Z,4.57
2023-03-12T16:53:27.860Z,4.18
2023-03-12T16:55:58.653Z,4.53
2023-03-12T16:58:29.785Z,5.22
2023-03-12T17:01:03.355Z,4.28
2023-03-12T17:03:36.427Z,4.20
2023-03-12T17:06:08.625Z,4.82
2023-03-12T17:08:38.695Z,4.28
2023-03-12T17:11:15.810Z,4.18
2023-03-12T17:13:46.006Z,5.57
2023-03-12T17:16:18.259Z,5.80
2023-03-12T17:18:48.130Z,4.38
2023-03-12T17:21:19.216Z,4.97
2023-03-12T17:23:50.332Z,4.68
2023-03-12T17:26:19.939Z,5.13
2023-03-12T17:28:49.461Z,4.55
2023-03-12T17:31:21.794Z,6.30
2023-03-12T17:33:51.425Z,6.63
2023-03-12T17:36:20.914Z,5.43
2023-03-12T17:38:51.058Z,5.78
2023-03-12T17:41:26.458Z,5.22
2023-03-12T17:43:58.862Z,4.90
2023-03-12T17:46:31.493Z,4.82
2023-03-12T17:49:01.321Z,4.30
2023-03-12T17:51:30.822Z,5.13
2023-03-12T17:54:00.400Z,4.80
2023-03-12T17:56:30.028Z,4.97
2023-03-12T17:58:59.554Z,4.18
2023-03-12T18:01:31.751Z,4.72
2023-03-12T18:04:01.283Z,4.43
2023-03-12T18:06:30.762Z,5.18
2023-03-12T18:09:00.295Z,4.43
2023-03-12T18:11:29.766Z,5.53
2023-03-12T18:13:59.343Z,4.15
2023-03-12T18:16:31.862Z,4.68
2023-03-12T18:19:01.401Z,4.13
2023-03-12T18:21:30.835Z,3.60
2023-03-12T18:24:11.686Z,4.80
2023-03-12T18:26:43.250Z,4.10
2023-03-12T18:29:12.744Z,4.18
2023-03-12T18:31:45.028Z,4.43
2023-03-12T18:34:14.680Z,4.65
2023-03-12T18:36:44.176Z,5.15
2023-03-12T18:39:13.729Z,5.13
2023-03-12T18:41:43.285Z,5.22
2023-03-12T18:44:13.167Z,5.00
2023-03-12T18:46:45.362Z,5.97
2023-03-12T18:49:14.976Z,5.43
2023-03-12T18:51:44.449Z,5.30
2023-03-12T18:54:14.806Z,5.22
2023-03-12T18:56:44.244Z,5.80
2023-03-12T18:59:14.701Z,5.97
2023-03-12T19:01:46.918Z,4.80
2023-03-12T19:04:18.466Z,5.00
2023-03-12T19:06:51.508Z,6.10
2023-03-12T19:09:21.694Z,6.10
2023-03-12T19:11:51.371Z,5.65
2023-03-12T19:14:20.806Z,5.13
2023-03-12T19:16:53.276Z,5.53
2023-03-12T19:19:22.896Z,5.45
2023-03-12T19:21:52.357Z,4.57
2023-03-12T19:24:21.978Z,4.00
2023-03-12T19:26:51.572Z,4.35
2023-03-12T19:29:21.060Z,4.63
2023-03-12T19:31:53.282Z,4.30
2023-03-12T19:34:23.276Z,4.80
2023-03-12T19:36:52.819Z,4.70
2023-03-12T19:39:22.404Z,4.47
2023-03-12T19:41:51.856Z,4.93
2023-03-12T19:44:21.691Z,4.65
2023-03-12T19:46:53.874Z,4.78
2023-03-12T19:49:23.496Z,4.80
2023-03-12T19:51:53.169Z,4.85
2023-03-12T19:54:22.845Z,3.97
2023-03-12T19:56:52.410Z,4.90
2023-03-12T19:59:21.958Z,4.88
2023-03-12T20:01:54.245Z,4.68
2023-03-12T20:04:23.865Z,4.22
2023-03-12T20:06:53.451Z,4.68
2023-03-12T20:09:23.140Z,3.92
2023-03-12T20:11:52.600Z,4.25
2023-03-12T20:14:22.253Z,4.93
2023-03-12T20:16:54.361Z,4.43
2023-03-12T20:19:24.308Z,4.45
2023-03-12T20:21:55.304Z,4.32
2023-03-12T20:24:25.044Z,5.20
2023-03-12T20:26:54.529Z,4.68
2023-03-12T20:29:24.215Z,4.32
2023-03-12T20:31:56.403Z,4.13
2023-03-12T20:34:26.086Z,4.80
2023-03-12T20:36:55.617Z,4.20
2023-03-12T20:39:25.216Z,4.57
2023-03-12T20:41:54.759Z,3.92
2023-03-12T20:44:24.295Z,4.22
2023-03-12T20:46:57.463Z,4.55
2023-03-12T20:49:27.088Z,4.03
2023-03-12T20:51:56.584Z,4.10
2023-03-12T20:54:27.457Z,4.40
2023-03-12T20:56:57.030Z,4.28
2023-03-12T20:59:26.521Z,3.38
2023-03-12T21:01:58.648Z,3.90
2023-03-12T21:04:28.219Z,3.85
2023-03-12T21:06:57.725Z,3.20
2023-03-12T21:09:27.330Z,2.97
2023-03-12T21:11:56.886Z,3.80
2023-03-12T21:14:26.526Z,3.22
2023-03-12T21:16:58.896Z,2.95
2023-03-12T21:19:31.448Z,3.83
2023-03-12T21:22:03.792Z,3.75
2023-03-12T21:24:35.099Z,3.97
2023-03-12T21:27:04.732Z,3.03
2023-03-12T21:29:34.297Z,3.20
2023-03-12T21:32:06.533Z,3.10
2023-03-12T21:34:36.831Z,3.40
2023-03-12T21:37:06.349Z,2.80
2023-03-12T21:39:36.774Z,3.15
2023-03-12T21:42:06.589Z,3.20
2023-03-12T21:44:37.213Z,3.10
2023-03-12T21:47:09.406Z,2.88
2023-03-12T21:49:39.175Z,2.63
2023-03-12T21:52:08.625Z,2.72
2023-03-12T21:54:38.316Z,3.20
2023-03-12T21:57:07.886Z,3.05
2023-03-12T21:59:37.408Z,3.05
2023-03-12T22:02:09.857Z,2.05
2023-03-12T22:04:39.506Z,2.30
2023-03-12T22:07:09.080Z,2.33
2023-03-12T22:09:38.608Z,2.15
2023-03-12T22:12:08.294Z,2.38
2023-03-12T22:14:37.859Z,2.53
2023-03-12T22:17:10.016Z,2.70
2023-03-12T22:19:41.932Z,2.40
2023-03-12T22:22:12.034Z,2.63
2023-03-12T22:24:41.617Z,2.10
2023-03-12T22:27:11.169Z,2.67
2023-03-12T22:29:40.651Z,2.92
2023-03-12T22:32:12.799Z,2.40
2023-03-12T22:34:42.351Z,2.17
2023-03-12T22:37:11.801Z,2.30
2023-03-12T22:39:43.278Z,2.28
2023-03-12T22:42:13.092Z,2.08
2023-03-12T22:44:43.368Z,1.77
2023-03-12T22:47:15.534Z,2.13
2023-03-12T22:49:46.739Z,2.05
2023-03-12T22:52:16.302Z,1.58
2023-03-12T22:54:45.853Z,2.22
2023-03-12T22:57:15.353Z,2.28
2023-03-12T22:59:44.872Z,1.88
2023-03-12T23:02:17.069Z,1.90
2023-03-12T23:04:46.818Z,2.45
2023-03-12T23:07:17.517Z,1.70
2023-03-12T23:09:47.708Z,2.35
2023-03-12T23:12:17.232Z,1.67
2023-03-12T23:14:46.704Z,1.77
2023-03-12T23:17:18.794Z,1.80
2023-03-12T23:19:48.365Z,1.83
2023-03-12T23:22:17.899Z,1.73
2023-03-12T23:24:47.568Z,2.05
2023-03-12T23:27:17.018Z,2.45
2023-03-12T23:29:46.571Z,1.90
2023-03-12T23:32:18.683Z,2.10
2023-03-12T23:34:48.341Z,1.50
2023-03-12T23:37:18.043Z,2.08
2023-03-12T23:39:54.528Z,1.73
2023-03-12T23:42:24.518Z,1.65
2023-03-12T23:44:54.069Z,1.60
2023-03-12T23:47:26.244Z,2.00
2023-03-12T23:49:55.901Z,2.00
2023-03-12T23:52:28.385Z,2.28
2023-03-12T23:54:57.920Z,2.38
2023-03-12T23:57:27.495Z,2.60
2023-03-12T23:59:57.118Z,2.20
